Time;durP1;ratioP1;P1;durP2;ratioP2;P2;SDS_P1;SDS_P2;PMS_P1;PMS_P2;Temp;Humidity;BMP_temperature;BMP_pressure;BME280_temperature;BME280_humidity;BME280_pressure;Samples;Min_cycle;Max_cycle;Signal;HPM_P1;HPM_P2
2022/04/11 00:01:50;;;;;;;8.13;2.90;;;7.60;94.20;;;;;;5052679;28;20594;-59
2022/04/11 00:04:17;;;;;;;6.07;2.67;;;7.50;94.30;;;;;;5051025;28;20053;-59
2022/04/11 00:06:44;;;;;;;9.77;2.38;;;7.50;94.30;;;;;;5031961;28;20095;-59
2022/04/11 00:09:11;;;;;;;7.25;3.00;;;7.40;94.40;;;;;;5051184;28;20053;-59
2022/04/11 00:11:38;;;;;;;8.05;3.05;;;7.50;94.50;;;;;;5051555;28;20088;-59
2022/04/11 00:14:05;;;;;;;10.13;3.08;;;7.40;94.50;;;;;;5052891;28;20048;-59
2022/04/11 00:16:32;;;;;;;9.07;3.17;;;7.40;94.70;;;;;;5051361;28;20044;-59
2022/04/11 00:18:58;;;;;;;5.60;2.63;;;7.30;94.90;;;;;;5051950;28;20098;-60
2022/04/11 00:21:26;;;;;;;6.70;2.47;;;7.30;95.10;;;;;;5052329;28;20132;-59
2022/04/11 00:23:53;;;;;;;11.25;3.58;;;7.30;95.20;;;;;;5052814;28;20132;-57
2022/04/11 00:26:19;;;;;;;9.18;2.92;;;7.20;95.30;;;;;;5052730;28;20144;-58
2022/04/11 00:28:46;;;;;;;7.05;3.08;;;7.20;95.70;;;;;;5052098;28;20131;-56
2022/04/11 00:31:13;;;;;;;15.32;5.65;;;7.10;95.70;;;;;;5051833;28;20048;-58
2022/04/11 00:33:40;;;;;;;11.35;5.80;;;7.10;95.80;;;;;;5048179;28;20052;-58
2022/04/11 00:36:07;;;;;;;11.98;3.20;;;7.10;95.90;;;;;;5051730;28;20045;-57
2022/04/11 00:38:33;;;;;;;8.70;2.90;;;7.20;96.20;;;;;;5051461;28;20117;-58
2022/04/11 00:41:00;;;;;;;7.45;3.00;;;7.20;96.10;;;;;;5051708;28;20049;-58
2022/04/11 00:43:30;;;;;;;12.43;3.28;;;7.20;96.10;;;;;;5034451;28;20052;-58
2022/04/11 00:45:58;;;;;;;6.90;3.22;;;7.20;96.40;;;;;;5052243;28;20087;-58
2022/04/11 00:48:25;;;;;;;8.20;3.10;;;7.20;96.40;;;;;;5051145;28;20127;-57
2022/04/11 00:50:58;;;;;;;9.23;3.85;;;7.10;96.30;;;;;;5051937;28;20049;-56
2022/04/11 00:53:26;;;;;;;10.65;3.67;;;7.10;96.60;;;;;;5050860;28;20055;-59
2022/04/11 00:55:52;;;;;;;9.70;3.70;;;7.10;96.70;;;;;;5050392;28;20080;-58
2022/04/11 00:58:19;;;;;;;10.48;3.25;;;7.20;96.70;;;;;;5034024;28;20213;-60
2022/04/11 01:00:46;;;;;;;10.93;3.25;;;7.10;96.70;;;;;;5017840;28;20514;-55
2022/04/11 01:03:13;;;;;;;8.38;3.17;;;7.10;97.10;;;;;;5033972;28;20440;-58
2022/04/11 01:05:40;;;;;;;11.65;3.25;;;7.10;97.00;;;;;;5050164;28;20479;-60
2022/04/11 01:08:08;;;;;;;6.07;3.20;;;7.00;96.90;;;;;;5050213;28;20148;-57
2022/04/11 01:10:35;;;;;;;12.05;3.45;;;7.00;97.10;;;;;;5051766;28;20076;-59
2022/04/11 01:13:03;;;;;;;7.45;3.28;;;6.90;97.20;;;;;;5050892;28;20081;-59
2022/04/11 01:15:30;;;;;;;7.85;3.80;;;6.90;97.30;;;;;;5051530;28;20045;-57
2022/04/11 01:17:56;;;;;;;9.68;4.60;;;6.90;97.40;;;;;;5051271;28;20110;-57
2022/04/11 01:20:23;;;;;;;9.75;3.65;;;7.00;97.40;;;;;;5051577;28;20091;-58
2022/04/11 01:22:50;;;;;;;17.38;3.92;;;7.00;97.40;;;;;;5051141;28;20357;-55
2022/04/11 01:25:18;;;;;;;7.82;3.55;;;6.90;97.50;;;;;;5051137;28;20512;-57
2022/04/11 01:27:44;;;;;;;8.88;4.00;;;6.90;97.80;;;;;;5033406;28;20086;-57
2022/04/11 01:30:13;;;;;;;13.63;3.67;;;6.90;97.60;;;;;;5049099;28;20099;-58
2022/04/11 01:32:40;;;;;;;18.65;4.07;;;6.90;97.70;;;;;;4706529;27;10000484;-59
2022/04/11 01:35:25;;;;;;;7.50;3.45;;;6.80;97.80;;;;;;5048396;28;20052;-58
2022/04/11 01:37:53;;;;;;;9.15;3.45;;;6.80;99.20;;;;;;5046726;28;20509;-57
2022/04/11 01:40:20;;;;;;;12.35;3.67;;;6.80;98.10;;;;;;5050233;28;20080;-56
2022/04/11 01:42:47;;;;;;;15.55;7.30;;;6.70;98.10;;;;;;5032975;28;20057;-56
2022/04/11 01:45:14;;;;;;;8.70;3.53;;;6.70;98.30;;;;;;5050385;28;20081;-57
2022/04/11 01:47:41;;;;;;;10.00;4.80;;;6.70;98.40;;;;;;5049584;28;20061;-54
2022/04/11 01:50:08;;;;;;;11.88;4.13;;;6.70;98.60;;;;;;5050938;28;20102;-54
2022/04/11 01:52:35;;;;;;;10.57;3.78;;;6.70;98.50;;;;;;5049882;28;20053;-57
2022/04/11 01:55:03;;;;;;;12.43;4.28;;;6.70;98.50;;;;;;5049334;28;20077;-55
2022/04/11 01:57:42;;;;;;;7.43;3.70;;;6.70;98.70;;;;;;5049183;28;20068;-58
2022/04/11 02:00:10;;;;;;;11.70;4.20;;;6.70;98.70;;;;;;5050614;28;20554;-57
2022/04/11 02:02:36;;;;;;;12.80;3.75;;;6.70;98.80;;;;;;5050804;28;20041;-58
2022/04/11 02:05:04;;;;;;;5.80;4.10;;;6.60;98.90;;;;;;5050286;28;20531;-57
2022/04/11 02:07:30;;;;;;;8.13;4.35;;;6.60;99.10;;;;;;5050570;28;20069;-57
2022/04/11 02:09:57;;;;;;;8.63;3.72;;;6.60;99.10;;;;;;5050129;28;20057;-55
2022/04/11 02:12:24;;;;;;;9.07;4.18;;;6.50;99.20;;;;;;5050605;28;20081;-56
2022/04/11 02:14:51;;;;;;;9.88;3.58;;;6.60;99.20;;;;;;5050233;28;20052;-58
2022/04/11 02:17:17;;;;;;;8.98;4.07;;;6.60;99.20;;;;;;5049200;28;20136;-58
2022/04/11 02:19:44;;;;;;;8.52;3.45;;;6.50;99.20;;;;;;5050294;28;20131;-58
2022/04/11 02:22:11;;;;;;;12.00;3.47;;;6.50;99.20;;;;;;5050049;28;20098;-58
2022/04/11 02:24:38;;;;;;;12.38;4.32;;;6.50;99.30;;;;;;5048871;28;20103;-58
2022/04/11 02:27:04;;;;;;;8.75;4.38;;;6.50;99.40;;;;;;5049833;28;20099;-57
2022/04/11 02:29:31;;;;;;;8.32;3.53;;;6.40;99.60;;;;;;5050219;28;20099;-57
2022/04/11 02:31:58;;;;;;;12.15;4.78;;;6.40;99.70;;;;;;5048457;28;20524;-59
2022/04/11 02:34:25;;;;;;;14.82;5.18;;;6.30;99.90;;;;;;5049889;28;20064;-55
2022/04/11 02:36:52;;;;;;;11.18;5.28;;;6.30;99.90;;;;;;5048549;28;20075;-58
2022/04/11 02:39:19;;;;;;;8.68;4.15;;;6.30;99.90;;;;;;5049093;28;20079;-57
2022/04/11 02:41:46;;;;;;;8.20;4.72;;;6.30;99.90;;;;;;5047965;28;20065;-58
2022/04/11 02:44:13;;;;;;;11.73;4.68;;;6.30;99.90;;;;;;5049237;28;20118;-56
2022/04/11 02:46:42;;;;;;;15.15;5.03;;;6.30;99.90;;;;;;5048908;28;20133;-60
2022/04/11 02:49:09;;;;;;;12.98;5.07;;;6.30;99.90;;;;;;5048719;28;20086;-58
2022/04/11 02:51:35;;;;;;;16.15;6.43;;;6.30;99.90;;;;;;5050253;28;20045;-58
2022/04/11 02:54:07;;;;;;;9.00;4.93;;;6.20;99.90;;;;;;5050000;28;20123;-57
2022/04/11 02:56:34;;;;;;;8.55;4.85;;;6.20;99.90;;;;;;5049970;28;20095;-56
2022/04/11 02:59:01;;;;;;;11.90;4.57;;;6.20;99.90;;;;;;5049882;28;20140;-57
2022/04/11 03:01:28;;;;;;;10.07;4.53;;;6.10;99.90;;;;;;5050300;28;20080;-58
2022/04/11 03:03:55;;;;;;;10.25;5.45;;;6.20;99.90;;;;;;5049566;28;20056;-58
2022/04/11 03:06:21;;;;;;;13.18;5.93;;;6.20;99.90;;;;;;5050279;28;20041;-56
2022/04/11 03:08:48;;;;;;;16.63;6.43;;;6.20;99.90;;;;;;5049361;28;20073;-57
2022/04/11 03:11:15;;;;;;;7.82;5.03;;;6.10;99.90;;;;;;5050419;28;20106;-58
2022/04/11 03:13:48;;;;;;;11.07;4.38;;;6.10;99.90;;;;;;5049215;28;20048;-57
2022/04/11 03:16:15;;;;;;;12.63;5.88;;;6.10;99.90;;;;;;5049045;28;20051;-55
2022/04/11 03:18:41;;;;;;;9.07;5.07;;;6.00;99.90;;;;;;5049408;28;20063;-56
2022/04/11 03:21:08;;;;;;;16.13;5.95;;;5.90;99.90;;;;;;5048940;28;20508;-56
2022/04/11 03:23:35;;;;;;;12.95;4.82;;;5.90;99.90;;;;;;5048138;28;20504;-58
2022/04/11 03:26:02;;;;;;;9.57;5.32;;;5.90;99.90;;;;;;5049576;28;20045;-56
2022/04/11 03:28:28;;;;;;;11.57;4.93;;;5.90;99.90;;;;;;5048500;28;20131;-56
2022/04/11 03:30:55;;;;;;;11.20;5.85;;;5.90;99.90;;;;;;5049536;28;20459;-58
2022/04/11 03:33:22;;;;;;;9.63;4.53;;;5.90;99.90;;;;;;5049154;28;20501;-57
2022/04/11 03:35:49;;;;;;;10.23;4.75;;;5.90;99.90;;;;;;5049473;28;20137;-56
2022/04/11 03:38:16;;;;;;;7.82;4.85;;;5.90;99.90;;;;;;5039968;28;20084;-57
2022/04/11 03:40:43;;;;;;;9.57;4.78;;;5.90;99.90;;;;;;5049518;28;20045;-57
2022/04/11 03:43:10;;;;;;;10.45;4.97;;;5.90;99.90;;;;;;5049229;28;20041;-57
2022/04/11 03:45:37;;;;;;;10.13;6.00;;;5.90;99.90;;;;;;5049103;28;20114;-55
2022/04/11 03:48:04;;;;;;;12.20;4.95;;;5.80;99.90;;;;;;5049590;28;20057;-57
2022/04/11 03:50:31;;;;;;;13.88;5.25;;;5.80;99.90;;;;;;5049274;28;20049;-57
2022/04/11 03:52:57;;;;;;;10.27;4.90;;;5.80;99.90;;;;;;5048793;28;20095;-57
2022/04/11 03:55:24;;;;;;;10.48;5.35;;;5.90;99.90;;;;;;5053318;28;20048;-58
2022/04/11 03:57:51;;;;;;;7.68;4.78;;;5.90;99.90;;;;;;5052983;28;20057;-57
2022/04/11 04:00:18;;;;;;;9.32;5.15;;;6.00;99.90;;;;;;5051875;28;20084;-56
2022/04/11 04:02:45;;;;;;;9.07;4.53;;;6.00;99.90;;;;;;5051084;28;20106;-57
2022/04/11 04:05:12;;;;;;;9.55;4.90;;;6.00;99.90;;;;;;5045606;28;20088;-57
2022/04/11 04:07:39;;;;;;;11.38;5.55;;;6.00;99.90;;;;;;5051752;28;20045;-57
2022/04/11 04:10:06;;;;;;;11.85;5.22;;;6.10;99.90;;;;;;5051653;28;20140;-57
2022/04/11 04:12:33;;;;;;;9.57;4.72;;;6.00;99.90;;;;;;5052681;28;20063;-58
2022/04/11 04:15:00;;;;;;;8.45;4.90;;;6.10;99.90;;;;;;5052441;28;20080;-56
2022/04/11 04:17:27;;;;;;;14.00;5.47;;;6.10;99.90;;;;;;5051341;28;20510;-57
2022/04/11 04:19:55;;;;;;;11.32;5.13;;;6.10;99.90;;;;;;5052165;28;20475;-57
2022/04/11 04:22:22;;;;;;;8.38;4.20;;;6.10;99.90;;;;;;5052934;28;20048;-57
2022/04/11 04:24:49;;;;;;;12.93;5.22;;;6.10;99.90;;;;;;5052149;28;20072;-57
2022/04/11 04:27:16;;;;;;;10.02;5.10;;;6.10;99.90;;;;;;5052553;28;20496;-57
2022/04/11 04:29:43;;;;;;;10.02;4.60;;;6.10;99.90;;;;;;5052346;28;20102;-57
2022/04/11 04:32:09;;;;;;;12.43;5.05;;;6.20;99.90;;;;;;5052326;28;20080;-56
2022/04/11 04:34:37;;;;;;;8.70;4.22;;;6.20;99.90;;;;;;5052110;28;20081;-57
2022/04/11 04:37:04;;;;;;;10.15;4.90;;;6.20;99.90;;;;;;5051942;28;20134;-55
2022/04/11 04:39:31;;;;;;;11.88;5.50;;;6.20;99.90;;;;;;5052495;28;20099;-58
2022/04/11 04:41:57;;;;;;;11.75;5.43;;;6.30;99.90;;;;;;5051731;28;20575;-55
2022/04/11 04:44:24;;;;;;;12.73;4.78;;;6.30;99.90;;;;;;5051159;28;20053;-58
2022/04/11 04:46:51;;;;;;;10.80;5.75;;;6.40;99.90;;;;;;5050318;28;20082;-58
2022/04/11 04:49:18;;;;;;;12.85;5.32;;;6.30;99.90;;;;;;5051129;28;20072;-55
2022/04/11 04:51:45;;;;;;;12.45;5.22;;;6.30;99.90;;;;;;5050168;28;20140;-56
2022/04/11 04:54:11;;;;;;;8.00;4.93;;;6.40;99.90;;;;;;5051378;28;20080;-55
2022/04/11 04:56:38;;;;;;;10.15;5.43;;;6.40;99.90;;;;;;5051659;28;20106;-55
2022/04/11 04:59:05;;;;;;;13.50;5.70;;;6.40;99.90;;;;;;5051489;28;20142;-57
2022/04/11 05:01:33;;;;;;;10.93;4.90;;;6.40;99.90;;;;;;5051878;28;20401;-56
2022/04/11 05:04:01;;;;;;;12.50;4.93;;;6.40;99.90;;;;;;5051072;28;20087;-56
2022/04/11 05:06:28;;;;;;;15.77;5.68;;;6.40;99.90;;;;;;5034317;28;20053;-58
2022/04/11 05:08:54;;;;;;;19.20;4.43;;;6.40;99.90;;;;;;5051953;28;20080;-56
2022/04/11 05:11:21;;;;;;;12.10;4.93;;;6.40;99.90;;;;;;5050153;28;20052;-56
2022/04/11 05:13:48;;;;;;;9.07;4.65;;;6.40;99.90;;;;;;5051279;28;20124;-57
2022/04/11 05:16:21;;;;;;;13.02;5.75;;;6.40;99.90;;;;;;5051713;28;20140;-58
2022/04/11 05:18:49;;;;;;;18.88;4.90;;;6.40;99.90;;;;;;5051569;28;20056;-58
2022/04/11 05:21:15;;;;;;;11.85;4.82;;;6.30;99.90;;;;;;5051763;28;20073;-58
2022/04/11 05:23:42;;;;;;;12.52;4.95;;;6.30;99.90;;;;;;5051339;28;20166;-58
2022/04/11 05:26:09;;;;;;;25.58;5.38;;;6.30;99.90;;;;;;5051402;28;20117;-56
2022/04/11 05:28:36;;;;;;;16.60;5.55;;;6.30;99.90;;;;;;5051157;28;20053;-58
2022/04/11 05:31:03;;;;;;;11.85;5.38;;;6.30;99.90;;;;;;5051194;28;20071;-56
2022/04/11 05:33:29;;;;;;;14.38;4.85;;;6.30;99.90;;;;;;5049708;28;20045;-56
2022/04/11 05:35:56;;;;;;;13.40;5.13;;;6.40;99.90;;;;;;5051272;28;20081;-58
2022/04/11 05:38:24;;;;;;;8.65;4.82;;;6.40;99.90;;;;;;5049778;28;20061;-58
2022/04/11 05:40:50;;;;;;;12.75;5.28;;;6.50;99.90;;;;;;5050725;28;20086;-58
2022/04/11 05:43:19;;;;;;;19.08;5.15;;;6.50;99.90;;;;;;5050835;28;20053;-58
2022/04/11 05:45:45;;;;;;;8.70;4.50;;;6.60;99.90;;;;;;5050792;28;20080;-56
2022/04/11 05:48:12;;;;;;;7.20;4.32;;;6.70;99.90;;;;;;5050960;28;20135;-57
2022/04/11 05:50:39;;;;;;;6.57;4.32;;;6.70;99.90;;;;;;5051015;28;20045;-56
2022/04/11 05:53:07;;;;;;;18.08;4.80;;;6.80;99.90;;;;;;5050710;28;20114;-58
2022/04/11 05:55:34;;;;;;;16.35;4.78;;;6.90;99.90;;;;;;5050844;28;20526;-54
2022/04/11 05:58:00;;;;;;;16.20;4.65;;;6.90;99.90;;;;;;5050347;28;20053;-56
2022/04/11 06:00:27;;;;;;;13.85;4.43;;;7.00;99.90;;;;;;5050816;28;20076;-56
2022/04/11 06:02:54;;;;;;;20.25;5.10;;;7.00;99.90;;;;;;5048007;28;20471;-54
2022/04/11 06:05:21;;;;;;;11.73;4.43;;;7.10;99.90;;;;;;5050060;28;20079;-55
2022/04/11 06:07:48;;;;;;;19.30;4.93;;;7.20;99.90;;;;;;5050233;28;20136;-58
2022/04/11 06:10:14;;;;;;;30.25;5.15;;;7.30;99.90;;;;;;5050386;28;20378;-56
2022/04/11 06:12:41;;;;;;;13.77;3.50;;;7.30;99.90;;;;;;5049852;28;20087;-59
2022/04/11 06:15:08;;;;;;;6.32;3.30;;;7.40;99.90;;;;;;5050362;28;20451;-60
2022/04/11 06:17:35;;;;;;;5.72;3.17;;;7.40;99.90;;;;;;5049865;28;20103;-59
2022/04/11 06:20:02;;;;;;;15.30;3.95;;;7.50;99.90;;;;;;5049622;28;20037;-58
2022/04/11 06:22:29;;;;;;;10.73;3.33;;;7.60;99.90;;;;;;5050000;28;20044;-58
2022/04/11 06:25:00;;;;;;;7.43;2.95;;;7.60;99.90;;;;;;5048075;28;20041;-58
2022/04/11 06:27:27;;;;;;;12.40;3.22;;;7.70;99.90;;;;;;5048890;28;20044;-57
2022/04/11 06:29:56;;;;;;;6.18;2.78;;;7.70;99.90;;;;;;5047972;28;20072;-60
2022/04/11 06:32:26;;;;;;;8.82;3.97;;;7.80;99.90;;;;;;5049825;28;20102;-57
2022/04/11 06:34:53;;;;;;;9.38;3.50;;;7.90;99.70;;;;;;5049547;28;20499;-57
2022/04/11 06:37:21;;;;;;;10.93;3.38;;;7.90;99.60;;;;;;5049972;28;20183;-57
2022/04/11 06:39:48;;;;;;;9.38;3.53;;;8.00;99.60;;;;;;5046896;28;20091;-57
2022/04/11 06:42:15;;;;;;;5.18;2.67;;;8.10;99.50;;;;;;5049672;28;20052;-56
2022/04/11 06:44:41;;;;;;;9.90;2.95;;;8.10;99.30;;;;;;5032120;28;20075;-56
2022/04/11 06:47:09;;;;;;;12.05;3.33;;;8.20;99.30;;;;;;5049947;28;20584;-58
2022/04/11 06:49:36;;;;;;;7.55;3.03;;;8.30;99.10;;;;;;5049701;28;20571;-59
2022/04/11 06:52:03;;;;;;;9.52;4.05;;;8.30;99.10;;;;;;5048691;28;20102;-56
2022/04/11 06:54:30;;;;;;;3.97;2.70;;;8.40;98.80;;;;;;5049562;28;20482;-55
2022/04/11 06:56:57;;;;;;;7.35;2.97;;;8.50;98.60;;;;;;5048938;28;20057;-56
2022/04/11 06:59:24;;;;;;;4.25;2.45;;;8.60;98.40;;;;;;5048084;28;20084;-55
2022/04/11 07:01:54;;;;;;;8.88;2.50;;;8.70;98.40;;;;;;5048355;28;20091;-55
2022/04/11 07:04:21;;;;;;;8.15;2.20;;;8.80;98.30;;;;;;5047488;28;20045;-58
2022/04/11 07:06:49;;;;;;;7.30;2.60;;;8.90;98.20;;;;;;5048789;28;20587;-55
2022/04/11 07:09:15;;;;;;;5.65;2.00;;;9.00;98.20;;;;;;5048959;28;20084;-58
2022/04/11 07:11:42;;;;;;;4.88;2.40;;;9.00;97.80;;;;;;5048949;28;20722;-58
2022/04/11 07:14:10;;;;;;;10.05;2.92;;;9.00;97.50;;;;;;5048784;28;20080;-57
2022/04/11 07:16:37;;;;;;;8.95;3.00;;;9.10;97.50;;;;;;5047524;28;20099;-58
2022/04/11 07:19:04;;;;;;;9.43;2.85;;;9.10;97.10;;;;;;5048117;28;20071;-58
2022/04/11 07:21:30;;;;;;;5.05;2.63;;;9.20;97.20;;;;;;5048619;28;20139;-56
2022/04/11 07:23:57;;;;;;;7.32;2.55;;;9.20;97.00;;;;;;5048581;28;20132;-57
2022/04/11 07:26:24;;;;;;;5.93;2.67;;;9.30;96.70;;;;;;5048848;28;20053;-58
2022/04/11 07:28:52;;;;;;;6.47;1.90;;;9.30;96.90;;;;;;5050042;28;20080;-57
2022/04/11 07:31:18;;;;;;;6.22;2.78;;;9.40;96.20;;;;;;5049313;28;20053;-57
2022/04/11 07:33:47;;;;;;;6.80;2.30;;;9.50;96.40;;;;;;5052082;28;20051;-58
2022/04/11 07:36:14;;;;;;;8.98;2.20;;;9.50;96.30;;;;;;5052100;28;20144;-59
2022/04/11 07:38:41;;;;;;;7.80;2.85;;;9.60;95.70;;;;;;5052460;28;20053;-58
2022/04/11 07:41:07;;;;;;;9.77;2.17;;;9.70;96.20;;;;;;5050463;28;20068;-57
2022/04/11 07:43:35;;;;;;;8.60;2.00;;;9.80;95.50;;;;;;5049479;28;20110;-57
2022/04/11 07:46:04;;;;;;;4.20;2.08;;;9.90;95.00;;;;;;5052162;28;20048;-57
2022/04/11 07:48:32;;;;;;;6.63;1.75;;;9.90;95.00;;;;;;5051305;28;20045;-58
2022/04/11 07:50:59;;;;;;;5.55;2.80;;;10.00;94.60;;;;;;5052347;28;20124;-57
2022/04/11 07:53:26;;;;;;;4.82;1.70;;;10.10;94.60;;;;;;5050558;28;20041;-56
2022/04/11 07:55:53;;;;;;;4.18;2.05;;;10.20;94.80;;;;;;5038812;28;20057;-58
2022/04/11 07:58:21;;;;;;;6.82;2.15;;;10.30;94.80;;;;;;5052257;28;20049;-58
2022/04/11 08:00:51;;;;;;;6.68;2.38;;;10.40;93.60;;;;;;5051018;28;20218;-57
2022/04/11 08:03:18;;;;;;;2.38;1.60;;;10.50;93.30;;;;;;5051619;28;20076;-57
2022/04/11 08:05:45;;;;;;;6.13;2.28;;;10.50;94.10;;;;;;5049477;28;20126;-57
2022/04/11 08:08:12;;;;;;;6.00;2.45;;;10.60;93.90;;;;;;4700478;27;10000501;-58
2022/04/11 08:10:39;;;;;;;4.65;1.70;;;10.60;92.50;;;;;;5049208;28;20049;-57
2022/04/11 08:13:06;;;;;;;4.00;1.85;;;10.70;92.80;;;;;;5046446;28;20079;-58
2022/04/11 08:15:33;;;;;;;5.22;2.17;;;10.70;93.50;;;;;;5047713;28;20478;-58
2022/04/11 08:18:00;;;;;;;2.83;1.45;;;10.80;93.70;;;;;;5047425;28;20068;-57
2022/04/11 08:20:27;;;;;;;6.13;2.17;;;10.90;93.30;;;;;;5047263;28;20088;-57
2022/04/11 08:22:54;;;;;;;4.70;1.60;;;11.00;92.70;;;;;;5047204;28;20331;-57
2022/04/11 08:25:21;;;;;;;3.90;1.55;;;11.00;92.60;;;;;;5049853;28;20049;-57
2022/04/11 08:27:48;;;;;;;3.25;1.42;;;11.00;92.20;;;;;;5030448;28;20104;-56
2022/04/11 08:30:15;;;;;;;5.57;1.75;;;11.10;91.80;;;;;;5046889;28;20057;-57
2022/04/11 08:32:46;;;;;;;1.88;1.40;;;11.10;91.50;;;;;;5046428;28;20049;-58
2022/04/11 08:35:13;;;;;;;4.38;1.73;;;11.10;91.60;;;;;;5048544;28;20080;-57
2022/04/11 08:37:40;;;;;;;10.73;1.83;;;11.20;91.00;;;;;;5048104;28;20067;-60
2022/04/11 08:40:10;;;;;;;9.63;1.70;;;11.20;91.80;;;;;;5045940;28;20604;-56
2022/04/11 08:42:41;;;;;;;4.28;1.58;;;11.20;91.70;;;;;;5047415;28;20462;-58
2022/04/11 08:45:32;;;;;;;3.55;1.40;;;11.30;91.30;;;;;;5046387;28;20041;-57
2022/04/11 08:48:00;;;;;;;5.75;1.77;;;11.30;91.10;;;;;;5047984;28;20431;-57
2022/04/11 08:50:27;;;;;;;10.20;2.67;;;11.40;90.80;;;;;;5048004;28;20095;-59
2022/04/11 08:52:55;;;;;;;5.88;1.30;;;11.50;91.50;;;;;;5046546;28;20053;-58
2022/04/11 08:55:23;;;;;;;4.47;1.48;;;11.60;90.90;;;;;;5046278;28;20095;-59
2022/04/11 08:57:58;;;;;;;5.78;2.00;;;11.70;91.00;;;;;;5047011;28;20044;-58
2022/04/11 09:00:25;;;;;;;4.68;1.55;;;11.90;90.00;;;;;;5045842;28;20474;-58
2022/04/11 09:02:52;;;;;;;3.47;1.65;;;12.00;90.50;;;;;;5047311;28;20656;-58
2022/04/11 09:05:20;;;;;;;5.10;1.50;;;12.10;90.00;;;;;;5047557;28;20057;-59
2022/04/11 09:07:50;;;;;;;2.58;1.42;;;12.20;88.80;;;;;;5046922;28;20103;-58
2022/04/11 09:10:27;;;;;;;3.45;1.63;;;12.40;89.40;;;;;;5046747;28;20083;-55
2022/04/11 09:12:57;;;;;;;7.60;1.58;;;12.50;85.90;;;;;;5047741;28;20106;-58
2022/04/11 09:15:25;;;;;;;8.65;1.45;;;12.60;84.50;;;;;;5046418;28;20583;-57
2022/04/11 09:17:53;;;;;;;3.40;1.35;;;12.60;87.50;;;;;;5045928;28;20388;-58
2022/04/11 09:20:21;;;;;;;1.90;0.90;;;12.70;87.90;;;;;;5047581;28;20132;-58
2022/04/11 09:22:48;;;;;;;13.13;2.20;;;12.80;85.10;;;;;;5045313;28;20077;-58
2022/04/11 09:25:16;;;;;;;5.35;1.48;;;12.80;84.80;;;;;;5046515;28;20089;-58
2022/04/11 09:27:43;;;;;;;5.18;1.95;;;12.80;82.90;;;;;;5046048;28;20057;-57
2022/04/11 09:30:20;;;;;;;3.55;1.27;;;12.90;84.00;;;;;;5044667;28;20555;-59
2022/04/11 09:33:15;;;;;;;3.97;1.35;;;13.10;79.00;;;;;;5046899;28;20538;-59
2022/04/11 09:35:46;;;;;;;4.30;1.80;;;13.40;78.30;;;;;;5036872;28;20110;-58
2022/04/11 09:38:20;;;;;;;3.53;1.00;;;13.70;80.90;;;;;;5046059;28;20045;-58
2022/04/11 09:40:48;;;;;;;4.32;1.17;;;14.10;79.70;;;;;;5046985;28;20053;-58
2022/04/11 09:43:17;;;;;;;5.43;1.65;;;14.50;75.60;;;;;;5045377;28;20480;-59
2022/04/11 09:45:48;;;;;;;8.13;1.20;;;14.70;75.40;;;;;;5047405;28;20090;-59
2022/04/11 09:48:16;;;;;;;5.93;1.00;;;15.00;71.70;;;;;;5047235;28;20079;-60
2022/04/11 09:50:43;;;;;;;2.55;1.15;;;15.10;73.10;;;;;;5046438;28;20045;-59
2022/04/11 09:53:20;;;;;;;5.18;1.30;;;15.00;75.50;;;;;;5044917;28;20497;-58
2022/04/11 09:55:50;;;;;;;12.07;1.05;;;15.00;69.90;;;;;;5046833;28;20072;-59
2022/04/11 09:58:18;;;;;;;3.25;1.40;;;14.80;70.40;;;;;;5045556;28;20049;-58
2022/04/11 10:00:45;;;;;;;5.30;1.27;;;14.70;71.70;;;;;;5046605;28;20521;-59
2022/04/11 10:03:12;;;;;;;2.75;0.98;;;14.80;74.30;;;;;;5047066;28;20083;-58
2022/04/11 10:05:39;;;;;;;2.15;1.10;;;14.80;67.00;;;;;;5046164;28;20073;-58
2022/04/11 10:08:07;;;;;;;6.68;1.55;;;14.90;71.70;;;;;;5042940;28;20142;-59
2022/04/11 10:10:35;;;;;;;1.25;0.60;;;15.00;68.40;;;;;;5046184;28;20643;-60
2022/04/11 10:13:02;;;;;;;4.50;1.10;;;15.10;67.20;;;;;;5028036;28;20099;-59
2022/04/11 10:15:29;;;;;;;2.70;0.88;;;15.00;68.10;;;;;;5045894;28;20057;-58
2022/04/11 10:17:56;;;;;;;3.25;1.30;;;14.90;68.10;;;;;;5045840;28;20051;-58
2022/04/11 10:20:34;;;;;;;11.68;1.58;;;14.90;72.00;;;;;;5045781;28;20049;-57
2022/04/11 10:23:02;;;;;;;7.53;1.33;;;14.90;66.30;;;;;;5045805;28;20056;-59
2022/04/11 10:25:31;;;;;;;4.80;1.35;;;14.90;70.00;;;;;;5030047;28;20053;-60
2022/04/11 10:28:17;;;;;;;4.68;1.30;;;14.80;66.90;;;;;;5047658;28;20053;-57
2022/04/11 10:30:46;;;;;;;4.43;1.00;;;14.70;62.80;;;;;;5048850;28;20106;-59
2022/04/11 10:33:13;;;;;;;3.20;1.10;;;14.80;67.60;;;;;;5045020;28;20080;-59
2022/04/11 10:35:41;;;;;;;4.63;1.13;;;14.80;66.20;;;;;;5049664;28;20048;-58
2022/04/11 10:38:12;;;;;;;6.95;0.88;;;14.70;62.80;;;;;;5048972;28;20048;-58
2022/04/11 10:40:47;;;;;;;5.47;1.23;;;14.70;63.50;;;;;;5047350;28;20057;-59
2022/04/11 10:43:34;;;;;;;1.75;1.00;;;14.60;62.50;;;;;;5047902;28;20107;-59
2022/04/11 10:46:02;;;;;;;6.03;1.10;;;14.70;65.50;;;;;;5049750;28;20095;-58
2022/04/11 10:48:57;;;;;;;6.80;1.35;;;14.70;64.10;;;;;;5041172;28;20052;-59
2022/04/11 10:51:24;;;;;;;7.10;0.90;;;14.80;58.40;;;;;;5038140;28;20458;-59
2022/04/11 10:54:17;;;;;;;3.55;1.15;;;14.70;65.20;;;;;;5047134;28;20365;-58
2022/04/11 10:57:04;;;;;;;4.50;0.95;;;14.80;57.00;;;;;;5028486;28;20065;-59
2022/04/11 11:00:06;;;;;;;5.45;1.25;;;14.80;64.60;;;;;;5029574;28;20087;-58
2022/04/11 11:02:59;;;;;;;8.63;1.00;;;14.70;56.00;;;;;;5040127;28;20535;-58
2022/04/11 11:05:28;;;;;;;2.97;1.08;;;14.70;58.30;;;;;;5050844;28;20071;-59
2022/04/11 11:08:10;;;;;;;4.68;1.00;;;14.80;64.20;;;;;;5050560;28;20421;-59
2022/04/11 11:10:54;;;;;;;2.90;1.08;;;14.90;59.40;;;;;;5051451;28;20049;-59
2022/04/11 11:13:30;;;;;;;;;;;15.00;58.90;;;;;;5034916;28;20048;-58
2022/04/11 11:16:27;;;;;;;4.72;1.00;;;15.00;56.90;;;;;;5041469;28;20342;-58
2022/04/11 11:19:17;;;;;;;4.63;1.10;;;14.90;58.00;;;;;;5051634;28;20049;-59
2022/04/11 11:21:48;;;;;;;2.83;1.33;;;15.00;62.80;;;;;;5050412;28;20101;-59
2022/04/11 11:24:16;;;;;;;4.22;1.52;;;15.10;62.30;;;;;;5050071;28;20075;-60
2022/04/11 11:26:45;;;;;;;5.03;1.00;;;15.20;61.50;;;;;;5048865;28;20569;-59
2022/04/11 11:29:16;;;;;;;5.18;1.60;;;15.30;62.10;;;;;;5048372;28;20053;-59
2022/04/11 11:31:43;;;;;;;2.13;1.20;;;15.40;58.10;;;;;;5048573;28;20151;-60
2022/04/11 11:34:11;;;;;;;3.90;1.23;;;15.40;61.10;;;;;;5051768;28;20045;-59
2022/04/11 11:36:38;;;;;;;5.05;1.25;;;15.40;59.20;;;;;;5053060;28;20110;-60
2022/04/11 11:39:11;;;;;;;3.95;1.00;;;15.60;60.60;;;;;;5052536;28;20045;-60
2022/04/11 11:41:42;;;;;;;5.75;1.23;;;15.60;60.90;;;;;;5050510;28;20093;-59
2022/04/11 11:44:09;;;;;;;1.92;1.15;;;15.70;61.30;;;;;;5050189;28;20082;-61
2022/04/11 11:46:58;;;;;;;22.90;16.98;;;15.70;60.30;;;;;;5050760;28;20091;-58
2022/04/11 11:49:28;;;;;;;3.40;1.40;;;15.80;55.60;;;;;;5048207;28;20041;-59
2022/04/11 11:51:57;;;;;;;2.40;1.30;;;15.80;57.30;;;;;;5049120;28;20045;-59
2022/04/11 11:54:40;;;;;;;4.20;1.52;;;15.80;58.80;;;;;;5047909;28;20539;-57
2022/04/11 11:57:13;;;;;;;2.43;1.20;;;15.90;54.30;;;;;;5049473;28;20087;-58
2022/04/11 11:59:54;;;;;;;4.37;1.20;;;15.90;57.50;;;;;;5049826;28;20479;-59
2022/04/11 12:05:20;;;;;;;6.57;1.33;;;16.00;57.40;;;;;;5051039;28;20128;-59
2022/04/11 12:07:48;;;;;;;1.83;0.98;;;16.10;53.30;;;;;;5052840;28;20462;-59
2022/04/11 12:10:16;;;;;;;2.85;1.20;;;16.10;56.20;;;;;;5050964;28;20071;-58
2022/04/11 12:12:44;;;;;;;4.93;2.20;;;16.10;56.20;;;;;;5041430;28;20146;-59
2022/04/11 12:15:12;;;;;;;3.92;1.08;;;16.10;56.70;;;;;;5049329;28;20048;-59
2022/04/11 12:17:44;;;;;;;4.00;1.27;;;16.20;57.90;;;;;;5047802;28;20041;-59
2022/04/11 12:20:19;;;;;;;2.22;1.08;;;16.30;56.90;;;;;;5050059;28;20073;-58
2022/04/11 12:23:11;;;;;;;4.03;1.17;;;16.30;53.80;;;;;;5051353;28;20494;-58
2022/04/11 12:25:42;;;;;;;2.80;1.38;;;16.40;52.50;;;;;;5036520;28;20115;-59
2022/04/11 12:28:10;;;;;;;4.40;1.55;;;16.30;52.80;;;;;;5050825;28;20091;-59
2022/04/11 12:30:37;;;;;;;1.67;1.10;;;16.30;55.50;;;;;;5051425;28;20096;-61
2022/04/11 12:33:04;;;;;;;7.43;3.15;;;16.30;54.10;;;;;;5052366;28;20037;-58
2022/04/11 12:35:32;;;;;;;2.53;1.20;;;16.40;53.50;;;;;;5033873;28;20080;-59
2022/04/11 12:38:04;;;;;;;6.13;1.50;;;16.50;55.20;;;;;;5051745;28;20090;-59
2022/04/11 12:40:53;;;;;;;2.78;1.08;;;16.60;57.00;;;;;;5050444;28;20084;-57
2022/04/11 12:43:23;;;;;;;2.63;1.38;;;16.70;51.60;;;;;;5028016;28;20413;-59
2022/04/11 12:46:06;;;;;;;5.05;1.95;;;16.70;55.70;;;;;;5015322;28;20041;-60
2022/04/11 12:48:56;;;;;;;5.43;1.63;;;16.80;52.80;;;;;;5050484;28;20132;-60
2022/04/11 12:51:25;;;;;;;3.00;1.63;;;16.70;51.40;;;;;;5046965;28;20041;-59
2022/04/11 12:53:52;;;;;;;4.35;1.55;;;16.70;55.30;;;;;;5051260;28;20060;-60
2022/04/11 12:56:19;;;;;;;8.43;2.47;;;16.80;55.40;;;;;;5050449;28;20045;-59
2022/04/11 12:58:47;;;;;;;2.67;1.67;;;16.90;55.50;;;;;;5047441;28;20534;-61
2022/04/11 13:01:14;;;;;;;3.60;1.50;;;17.00;55.50;;;;;;5050911;28;20319;-59
2022/04/11 13:03:41;;;;;;;3.75;1.77;;;17.10;55.80;;;;;;5051424;28;20052;-59